sensor_id;sensor_type;location;lat;lon;timestamp;P1;durP1;ratioP1;P2;durP2;ratioP2
14704;SDS011;7442;50.840;3.396;2022-11-12T00:00:48;2.95;;;2.05;;
14704;SDS011;7442;50.840;3.396;2022-11-12T00:03:19;3.15;;;2.00;;
14704;SDS011;7442;50.840;3.396;2022-11-12T00:05:49;2.22;;;2.02;;
14704;SDS011;7442;50.840;3.396;2022-11-12T00:08:20;2.08;;;1.90;;
14704;SDS011;7442;50.840;3.396;2022-11-12T00:10:50;2.52;;;2.08;;
14704;SDS011;7442;50.840;3.396;2022-11-12T00:13:20;2.35;;;2.00;;
14704;SDS011;7442;50.840;3.396;2022-11-12T00:15:52;3.67;;;2.08;;
14704;SDS011;7442;50.840;3.396;2022-11-12T00:18:22;4.12;;;2.05;;
14704;SDS011;7442;50.840;3.396;2022-11-12T00:20:52;3.25;;;2.30;;
14704;SDS011;7442;50.840;3.396;2022-11-12T00:23:22;2.50;;;2.12;;
14704;SDS011;7442;50.840;3.396;2022-11-12T00:25:59;2.00;;;1.80;;
14704;SDS011;7442;50.840;3.396;2022-11-12T00:28:29;3.20;;;2.30;;
14704;SDS011;7442;50.840;3.396;2022-11-12T00:31:05;2.33;;;2.12;;
14704;SDS011;7442;50.840;3.396;2022-11-12T00:33:39;2.85;;;2.20;;
14704;SDS011;7442;50.840;3.396;2022-11-12T00:36:10;2.25;;;2.05;;
14704;SDS011;7442;50.840;3.396;2022-11-12T00:38:41;2.67;;;2.30;;
14704;SDS011;7442;50.840;3.396;2022-11-12T00:41:11;2.50;;;2.30;;
14704;SDS011;7442;50.840;3.396;2022-11-12T00:43:41;3.17;;;2.22;;
14704;SDS011;7442;50.840;3.396;2022-11-12T00:46:11;2.80;;;2.42;;
14704;SDS011;7442;50.840;3.396;2022-11-12T00:48:41;2.25;;;2.00;;
14704;SDS011;7442;50.840;3.396;2022-11-12T00:51:11;2.40;;;2.10;;
14704;SDS011;7442;50.840;3.396;2022-11-12T00:53:41;2.45;;;2.15;;
14704;SDS011;7442;50.840;3.396;2022-11-12T00:56:11;2.58;;;2.20;;
14704;SDS011;7442;50.840;3.396;2022-11-12T00:58:41;2.58;;;2.20;;
14704;SDS011;7442;50.840;3.396;2022-11-12T01:01:13;2.45;;;2.15;;
14704;SDS011;7442;50.840;3.396;2022-11-12T01:03:44;2.75;;;2.45;;
14704;SDS011;7442;50.840;3.396;2022-11-12T01:06:15;2.30;;;2.10;;
14704;SDS011;7442;50.840;3.396;2022-11-12T01:08:47;2.27;;;2.08;;
14704;SDS011;7442;50.840;3.396;2022-11-12T01:11:19;2.30;;;1.98;;
14704;SDS011;7442;50.840;3.396;2022-11-12T01:13:57;2.77;;;2.20;;
14704;SDS011;7442;50.840;3.396;2022-11-12T01:16:26;2.90;;;1.87;;
14704;SDS011;7442;50.840;3.396;2022-11-12T01:18:59;2.37;;;1.92;;
14704;SDS011;7442;50.840;3.396;2022-11-12T01:21:31;2.87;;;2.17;;
14704;SDS011;7442;50.840;3.396;2022-11-12T01:24:01;2.92;;;2.10;;
14704;SDS011;7442;50.840;3.396;2022-11-12T01:26:31;2.22;;;1.92;;
14704;SDS011;7442;50.840;3.396;2022-11-12T01:29:02;2.33;;;2.02;;
14704;SDS011;7442;50.840;3.396;2022-11-12T01:31:34;1.95;;;1.85;;
14704;SDS011;7442;50.840;3.396;2022-11-12T01:34:06;2.70;;;2.25;;
14704;SDS011;7442;50.840;3.396;2022-11-12T01:36:37;2.42;;;2.17;;
14704;SDS011;7442;50.840;3.396;2022-11-12T01:39:08;2.58;;;2.10;;
14704;SDS011;7442;50.840;3.396;2022-11-12T01:41:39;2.60;;;2.00;;
14704;SDS011;7442;50.840;3.396;2022-11-12T01:44:10;2.40;;;2.20;;
14704;SDS011;7442;50.840;3.396;2022-11-12T01:46:49;2.27;;;2.08;;
14704;SDS011;7442;50.840;3.396;2022-11-12T01:52:27;2.50;;;2.17;;
14704;SDS011;7442;50.840;3.396;2022-11-12T01:55:06;2.05;;;1.90;;
14704;SDS011;7442;50.840;3.396;2022-11-12T01:57:46;2.08;;;1.87;;
14704;SDS011;7442;50.840;3.396;2022-11-12T02:00:26;2.20;;;2.00;;
14704;SDS011;7442;50.840;3.396;2022-11-12T02:02:57;2.40;;;2.20;;
14704;SDS011;7442;50.840;3.396;2022-11-12T02:05:29;2.33;;;2.12;;
14704;SDS011;7442;50.840;3.396;2022-11-12T02:08:01;2.40;;;2.20;;
14704;SDS011;7442;50.840;3.396;2022-11-12T02:10:37;2.55;;;2.20;;
14704;SDS011;7442;50.840;3.396;2022-11-12T02:13:08;3.95;;;1.95;;
14704;SDS011;7442;50.840;3.396;2022-11-12T02:15:56;2.05;;;1.87;;
14704;SDS011;7442;50.840;3.396;2022-11-12T02:18:27;2.40;;;2.20;;
14704;SDS011;7442;50.840;3.396;2022-11-12T02:20:57;2.30;;;2.10;;
14704;SDS011;7442;50.840;3.396;2022-11-12T02:23:29;2.25;;;2.05;;
14704;SDS011;7442;50.840;3.396;2022-11-12T02:25:59;2.22;;;2.00;;
14704;SDS011;7442;50.840;3.396;2022-11-12T02:28:30;2.42;;;2.20;;
14704;SDS011;7442;50.840;3.396;2022-11-12T02:31:01;3.70;;;2.00;;
14704;SDS011;7442;50.840;3.396;2022-11-12T02:33:31;1.98;;;1.85;;
14704;SDS011;7442;50.840;3.396;2022-11-12T02:36:01;2.50;;;2.10;;
14704;SDS011;7442;50.840;3.396;2022-11-12T02:38:31;2.45;;;1.90;;
14704;SDS011;7442;50.840;3.396;2022-11-12T02:41:01;2.95;;;1.90;;
14704;SDS011;7442;50.840;3.396;2022-11-12T02:43:31;2.17;;;1.90;;
14704;SDS011;7442;50.840;3.396;2022-11-12T02:46:01;2.70;;;1.98;;
14704;SDS011;7442;50.840;3.396;2022-11-12T02:48:31;2.45;;;2.10;;
14704;SDS011;7442;50.840;3.396;2022-11-12T02:51:07;2.67;;;2.12;;
14704;SDS011;7442;50.840;3.396;2022-11-12T02:53:37;2.87;;;2.22;;
14704;SDS011;7442;50.840;3.396;2022-11-12T02:56:07;2.62;;;2.27;;
14704;SDS011;7442;50.840;3.396;2022-11-12T02:58:37;3.47;;;2.00;;
14704;SDS011;7442;50.840;3.396;2022-11-12T03:01:07;2.65;;;2.00;;
14704;SDS011;7442;50.840;3.396;2022-11-12T03:03:37;2.10;;;1.90;;
14704;SDS011;7442;50.840;3.396;2022-11-12T03:06:07;2.25;;;2.05;;
14704;SDS011;7442;50.840;3.396;2022-11-12T03:08:41;2.45;;;1.80;;
14704;SDS011;7442;50.840;3.396;2022-11-12T03:11:12;2.27;;;1.92;;
14704;SDS011;7442;50.840;3.396;2022-11-12T03:13:44;1.92;;;1.80;;
14704;SDS011;7442;50.840;3.396;2022-11-12T03:16:14;2.35;;;1.98;;
14704;SDS011;7442;50.840;3.396;2022-11-12T03:18:44;2.55;;;2.35;;
14704;SDS011;7442;50.840;3.396;2022-11-12T03:21:14;2.25;;;1.82;;
14704;SDS011;7442;50.840;3.396;2022-11-12T03:23:44;2.95;;;2.00;;
14704;SDS011;7442;50.840;3.396;2022-11-12T03:26:14;2.67;;;2.20;;
14704;SDS011;7442;50.840;3.396;2022-11-12T03:28:44;2.10;;;1.90;;
14704;SDS011;7442;50.840;3.396;2022-11-12T03:31:14;2.22;;;2.00;;
14704;SDS011;7442;50.840;3.396;2022-11-12T03:33:44;2.10;;;1.87;;
14704;SDS011;7442;50.840;3.396;2022-11-12T03:36:14;2.08;;;1.87;;
14704;SDS011;7442;50.840;3.396;2022-11-12T03:38:44;2.37;;;2.00;;
14704;SDS011;7442;50.840;3.396;2022-11-12T03:41:14;2.17;;;1.98;;
14704;SDS011;7442;50.840;3.396;2022-11-12T03:43:44;2.25;;;1.90;;
14704;SDS011;7442;50.840;3.396;2022-11-12T03:46:14;2.37;;;2.00;;
14704;SDS011;7442;50.840;3.396;2022-11-12T03:48:44;2.10;;;1.70;;
14704;SDS011;7442;50.840;3.396;2022-11-12T03:51:14;2.20;;;2.00;;
14704;SDS011;7442;50.840;3.396;2022-11-12T03:53:45;2.20;;;2.05;;
14704;SDS011;7442;50.840;3.396;2022-11-12T03:56:16;2.40;;;2.12;;
14704;SDS011;7442;50.840;3.396;2022-11-12T03:58:46;1.92;;;1.72;;
14704;SDS011;7442;50.840;3.396;2022-11-12T04:01:16;1.90;;;1.80;;
14704;SDS011;7442;50.840;3.396;2022-11-12T04:03:46;2.30;;;2.00;;
14704;SDS011;7442;50.840;3.396;2022-11-12T04:06:16;2.67;;;1.80;;
14704;SDS011;7442;50.840;3.396;2022-11-12T04:09:04;2.30;;;1.95;;
14704;SDS011;7442;50.840;3.396;2022-11-12T04:11:34;2.70;;;2.12;;
14704;SDS011;7442;50.840;3.396;2022-11-12T04:14:04;2.35;;;1.90;;
14704;SDS011;7442;50.840;3.396;2022-11-12T04:16:34;1.95;;;1.77;;
14704;SDS011;7442;50.840;3.396;2022-11-12T04:19:23;2.00;;;1.80;;
14704;SDS011;7442;50.840;3.396;2022-11-12T04:22:11;2.62;;;2.00;;
14704;SDS011;7442;50.840;3.396;2022-11-12T04:24:41;2.17;;;1.90;;
14704;SDS011;7442;50.840;3.396;2022-11-12T04:27:30;2.10;;;1.90;;
14704;SDS011;7442;50.840;3.396;2022-11-12T04:30:01;2.70;;;1.87;;
14704;SDS011;7442;50.840;3.396;2022-11-12T04:32:48;2.50;;;1.82;;
14704;SDS011;7442;50.840;3.396;2022-11-12T04:35:22;2.20;;;1.85;;
14704;SDS011;7442;50.840;3.396;2022-11-12T04:37:54;2.37;;;2.00;;
14704;SDS011;7442;50.840;3.396;2022-11-12T04:40:25;2.17;;;1.67;;
14704;SDS011;7442;50.840;3.396;2022-11-12T04:43:15;2.35;;;2.00;;
14704;SDS011;7442;50.840;3.396;2022-11-12T04:46:03;2.08;;;1.87;;
14704;SDS011;7442;50.840;3.396;2022-11-12T04:48:34;2.12;;;1.92;;
14704;SDS011;7442;50.840;3.396;2022-11-12T04:51:04;2.22;;;1.90;;
14704;SDS011;7442;50.840;3.396;2022-11-12T04:53:36;1.95;;;1.80;;
14704;SDS011;7442;50.840;3.396;2022-11-12T04:56:06;1.82;;;1.70;;
14704;SDS011;7442;50.840;3.396;2022-11-12T04:58:36;1.98;;;1.85;;
14704;SDS011;7442;50.840;3.396;2022-11-12T05:01:06;2.27;;;2.05;;
14704;SDS011;7442;50.840;3.396;2022-11-12T05:03:36;2.00;;;1.80;;
14704;SDS011;7442;50.840;3.396;2022-11-12T05:06:13;1.95;;;1.75;;
14704;SDS011;7442;50.840;3.396;2022-11-12T05:09:00;2.00;;;1.80;;
14704;SDS011;7442;50.840;3.396;2022-11-12T05:11:30;3.00;;;1.92;;
14704;SDS011;7442;50.840;3.396;2022-11-12T05:14:00;1.87;;;1.70;;
14704;SDS011;7442;50.840;3.396;2022-11-12T05:16:30;1.82;;;1.62;;
14704;SDS011;7442;50.840;3.396;2022-11-12T05:19:03;2.10;;;1.90;;
14704;SDS011;7442;50.840;3.396;2022-11-12T05:21:33;1.90;;;1.70;;
14704;SDS011;7442;50.840;3.396;2022-11-12T05:24:21;2.17;;;1.95;;
14704;SDS011;7442;50.840;3.396;2022-11-12T05:26:52;2.02;;;1.70;;
14704;SDS011;7442;50.840;3.396;2022-11-12T05:29:22;2.40;;;1.82;;
14704;SDS011;7442;50.840;3.396;2022-11-12T05:31:52;2.25;;;1.98;;
14704;SDS011;7442;50.840;3.396;2022-11-12T05:34:23;2.77;;;1.98;;
14704;SDS011;7442;50.840;3.396;2022-11-12T05:36:53;2.02;;;1.80;;
14704;SDS011;7442;50.840;3.396;2022-11-12T05:39:23;2.08;;;1.65;;
14704;SDS011;7442;50.840;3.396;2022-11-12T05:41:53;2.27;;;1.70;;
14704;SDS011;7442;50.840;3.396;2022-11-12T05:44:23;2.12;;;1.80;;
14704;SDS011;7442;50.840;3.396;2022-11-12T05:46:54;2.33;;;2.12;;
14704;SDS011;7442;50.840;3.396;2022-11-12T05:49:24;1.82;;;1.55;;
14704;SDS011;7442;50.840;3.396;2022-11-12T05:51:54;2.05;;;1.80;;
14704;SDS011;7442;50.840;3.396;2022-11-12T05:54:28;2.10;;;1.90;;
14704;SDS011;7442;50.840;3.396;2022-11-12T05:56:58;2.00;;;1.82;;
14704;SDS011;7442;50.840;3.396;2022-11-12T05:59:28;2.00;;;1.80;;
14704;SDS011;7442;50.840;3.396;2022-11-12T06:01:59;2.75;;;1.70;;
14704;SDS011;7442;50.840;3.396;2022-11-12T06:04:29;1.90;;;1.80;;
14704;SDS011;7442;50.840;3.396;2022-11-12T06:06:59;1.87;;;1.77;;
14704;SDS011;7442;50.840;3.396;2022-11-12T06:09:31;1.60;;;1.50;;
14704;SDS011;7442;50.840;3.396;2022-11-12T06:12:01;2.12;;;1.70;;
14704;SDS011;7442;50.840;3.396;2022-11-12T06:14:33;2.90;;;1.82;;
14704;SDS011;7442;50.840;3.396;2022-11-12T06:17:03;2.10;;;1.90;;
14704;SDS011;7442;50.840;3.396;2022-11-12T06:19:33;3.20;;;1.90;;
14704;SDS011;7442;50.840;3.396;2022-11-12T06:22:03;2.45;;;1.67;;
14704;SDS011;7442;50.840;3.396;2022-11-12T06:24:33;1.95;;;1.75;;
14704;SDS011;7442;50.840;3.396;2022-11-12T06:27:03;2.40;;;1.77;;
14704;SDS011;7442;50.840;3.396;2022-11-12T06:29:33;1.80;;;1.55;;
14704;SDS011;7442;50.840;3.396;2022-11-12T06:32:03;2.22;;;2.02;;
14704;SDS011;7442;50.840;3.396;2022-11-12T06:34:33;1.85;;;1.65;;
14704;SDS011;7442;50.840;3.396;2022-11-12T06:37:06;1.57;;;1.47;;
14704;SDS011;7442;50.840;3.396;2022-11-12T06:39:36;2.05;;;1.65;;
14704;SDS011;7442;50.840;3.396;2022-11-12T06:42:06;1.72;;;1.52;;
14704;SDS011;7442;50.840;3.396;2022-11-12T06:44:36;2.08;;;1.87;;
14704;SDS011;7442;50.840;3.396;2022-11-12T06:47:06;1.87;;;1.60;;
14704;SDS011;7442;50.840;3.396;2022-11-12T06:49:37;1.57;;;1.47;;
14704;SDS011;7442;50.840;3.396;2022-11-12T06:52:07;1.75;;;1.65;;
14704;SDS011;7442;50.840;3.396;2022-11-12T06:54:44;2.15;;;1.57;;
14704;SDS011;7442;50.840;3.396;2022-11-12T06:57:14;1.82;;;1.55;;
14704;SDS011;7442;50.840;3.396;2022-11-12T06:59:44;2.10;;;1.90;;
14704;SDS011;7442;50.840;3.396;2022-11-12T07:02:14;1.90;;;1.70;;
14704;SDS011;7442;50.840;3.396;2022-11-12T07:04:44;2.00;;;1.80;;
14704;SDS011;7442;50.840;3.396;2022-11-12T07:07:14;2.05;;;1.72;;
14704;SDS011;7442;50.840;3.396;2022-11-12T07:09:51;1.87;;;1.77;;
14704;SDS011;7442;50.840;3.396;2022-11-12T07:12:21;1.95;;;1.70;;
14704;SDS011;7442;50.840;3.396;2022-11-12T07:14:52;4.08;;;1.72;;
14704;SDS011;7442;50.840;3.396;2022-11-12T07:17:23;2.05;;;1.55;;
14704;SDS011;7442;50.840;3.396;2022-11-12T07:19:53;1.55;;;1.45;;
14704;SDS011;7442;50.840;3.396;2022-11-12T07:22:23;2.05;;;1.70;;
14704;SDS011;7442;50.840;3.396;2022-11-12T07:24:53;2.42;;;1.75;;
14704;SDS011;7442;50.840;3.396;2022-11-12T07:27:23;2.22;;;1.70;;
14704;SDS011;7442;50.840;3.396;2022-11-12T07:29:55;1.85;;;1.72;;
14704;SDS011;7442;50.840;3.396;2022-11-12T07:32:25;1.72;;;1.62;;
14704;SDS011;7442;50.840;3.396;2022-11-12T07:34:57;1.85;;;1.55;;
14704;SDS011;7442;50.840;3.396;2022-11-12T07:37:27;1.67;;;1.57;;
14704;SDS011;7442;50.840;3.396;2022-11-12T07:39:57;1.95;;;1.70;;
14704;SDS011;7442;50.840;3.396;2022-11-12T07:42:28;1.82;;;1.72;;
14704;SDS011;7442;50.840;3.396;2022-11-12T07:44:59;1.90;;;1.60;;
14704;SDS011;7442;50.840;3.396;2022-11-12T07:47:30;2.10;;;1.72;;
14704;SDS011;7442;50.840;3.396;2022-11-12T07:50:00;2.50;;;1.95;;
14704;SDS011;7442;50.840;3.396;2022-11-12T07:52:30;2.02;;;1.72;;
14704;SDS011;7442;50.840;3.396;2022-11-12T07:55:00;2.60;;;1.70;;
14704;SDS011;7442;50.840;3.396;2022-11-12T07:57:31;1.98;;;1.82;;
14704;SDS011;7442;50.840;3.396;2022-11-12T08:00:01;6.70;;;2.55;;
14704;SDS011;7442;50.840;3.396;2022-11-12T08:02:32;2.95;;;1.75;;
14704;SDS011;7442;50.840;3.396;2022-11-12T08:05:02;2.77;;;2.05;;
14704;SDS011;7442;50.840;3.396;2022-11-12T08:07:33;3.72;;;1.90;;
14704;SDS011;7442;50.840;3.396;2022-11-12T08:10:03;1.98;;;1.60;;
14704;SDS011;7442;50.840;3.396;2022-11-12T08:12:34;2.22;;;1.77;;
14704;SDS011;7442;50.840;3.396;2022-11-12T08:15:04;1.95;;;1.65;;
14704;SDS011;7442;50.840;3.396;2022-11-12T08:17:36;1.80;;;1.70;;
14704;SDS011;7442;50.840;3.396;2022-11-12T08:20:07;2.00;;;1.80;;
14704;SDS011;7442;50.840;3.396;2022-11-12T08:22:38;2.00;;;1.80;;
14704;SDS011;7442;50.840;3.396;2022-11-12T08:25:08;1.50;;;1.40;;
14704;SDS011;7442;50.840;3.396;2022-11-12T08:27:38;1.72;;;1.62;;
14704;SDS011;7442;50.840;3.396;2022-11-12T08:30:09;1.95;;;1.80;;
14704;SDS011;7442;50.840;3.396;2022-11-12T08:32:40;2.72;;;1.70;;
14704;SDS011;7442;50.840;3.396;2022-11-12T08:35:10;1.92;;;1.45;;
14704;SDS011;7442;50.840;3.396;2022-11-12T08:37:40;2.45;;;2.00;;
14704;SDS011;7442;50.840;3.396;2022-11-12T08:40:10;2.20;;;1.98;;
14704;SDS011;7442;50.840;3.396;2022-11-12T08:42:41;2.15;;;1.95;;
14704;SDS011;7442;50.840;3.396;2022-11-12T08:45:11;2.12;;;1.92;;
14704;SDS011;7442;50.840;3.396;2022-11-12T08:47:41;2.22;;;2.02;;
14704;SDS011;7442;50.840;3.396;2022-11-12T08:50:12;2.25;;;1.98;;
14704;SDS011;7442;50.840;3.396;2022-11-12T08:52:42;1.82;;;1.62;;
14704;SDS011;7442;50.840;3.396;2022-11-12T08:55:12;1.98;;;1.82;;
14704;SDS011;7442;50.840;3.396;2022-11-12T08:57:43;2.60;;;2.27;;
14704;SDS011;7442;50.840;3.396;2022-11-12T09:00:13;2.90;;;1.80;;
14704;SDS011;7442;50.840;3.396;2022-11-12T09:02:43;2.17;;;1.98;;
14704;SDS011;7442;50.840;3.396;2022-11-12T09:05:13;2.70;;;2.27;;
14704;SDS011;7442;50.840;3.396;2022-11-12T09:07:44;3.17;;;2.17;;
14704;SDS011;7442;50.840;3.396;2022-11-12T09:10:14;2.67;;;2.12;;
14704;SDS011;7442;50.840;3.396;2022-11-12T09:12:49;2.40;;;2.02;;
14704;SDS011;7442;50.840;3.396;2022-11-12T09:15:18;2.60;;;2.27;;
14704;SDS011;7442;50.840;3.396;2022-11-12T09:18:00;3.50;;;2.15;;
14704;SDS011;7442;50.840;3.396;2022-11-12T09:20:34;5.70;;;2.20;;
14704;SDS011;7442;50.840;3.396;2022-11-12T09:23:05;3.52;;;2.50;;
14704;SDS011;7442;50.840;3.396;2022-11-12T09:25:37;3.22;;;2.90;;
14704;SDS011;7442;50.840;3.396;2022-11-12T09:28:14;3.67;;;2.80;;
14704;SDS011;7442;50.840;3.396;2022-11-12T09:30:47;4.00;;;3.00;;
14704;SDS011;7442;50.840;3.396;2022-11-12T09:33:14;3.12;;;2.80;;
14704;SDS011;7442;50.840;3.396;2022-11-12T09:35:45;4.08;;;2.92;;
14704;SDS011;7442;50.840;3.396;2022-11-12T09:38:16;3.30;;;2.75;;
14704;SDS011;7442;50.840;3.396;2022-11-12T09:46:19;3.33;;;2.95;;
14704;SDS011;7442;50.840;3.396;2022-11-12T09:48:55;3.10;;;2.80;;
14704;SDS011;7442;50.840;3.396;2022-11-12T09:51:26;4.40;;;3.15;;
14704;SDS011;7442;50.840;3.396;2022-11-12T09:53:59;3.52;;;2.70;;
14704;SDS011;7442;50.840;3.396;2022-11-12T09:56:34;4.60;;;3.27;;
14704;SDS011;7442;50.840;3.396;2022-11-12T09:59:11;3.70;;;2.90;;
14704;SDS011;7442;50.840;3.396;2022-11-12T10:07:13;3.72;;;3.15;;
14704;SDS011;7442;50.840;3.396;2022-11-12T10:09:56;3.52;;;3.08;;
14704;SDS011;7442;50.840;3.396;2022-11-12T10:12:25;4.72;;;3.33;;
14704;SDS011;7442;50.840;3.396;2022-11-12T10:15:27;3.27;;;2.72;;
14704;SDS011;7442;50.840;3.396;2022-11-12T10:18:24;3.35;;;3.02;;
14704;SDS011;7442;50.840;3.396;2022-11-12T10:23:44;2.95;;;2.65;;
14704;SDS011;7442;50.840;3.396;2022-11-12T10:26:16;4.35;;;2.92;;
14704;SDS011;7442;50.840;3.396;2022-11-12T10:28:49;4.00;;;3.00;;
14704;SDS011;7442;50.840;3.396;2022-11-12T10:31:40;4.62;;;3.17;;
14704;SDS011;7442;50.840;3.396;2022-11-12T10:34:13;4.55;;;3.33;;
14704;SDS011;7442;50.840;3.396;2022-11-12T10:37:01;4.03;;;3.10;;
14704;SDS011;7442;50.840;3.396;2022-11-12T10:39:32;3.80;;;3.00;;
14704;SDS011;7442;50.840;3.396;2022-11-12T10:42:10;4.10;;;2.95;;
14704;SDS011;7442;50.840;3.396;2022-11-12T10:44:48;3.83;;;2.85;;
14704;SDS011;7442;50.840;3.396;2022-11-12T10:52:54;3.25;;;2.95;;
14704;SDS011;7442;50.840;3.396;2022-11-12T10:55:33;4.87;;;3.42;;
14704;SDS011;7442;50.840;3.396;2022-11-12T11:00:54;4.05;;;2.90;;
14704;SDS011;7442;50.840;3.396;2022-11-12T11:03:31;3.67;;;2.75;;
14704;SDS011;7442;50.840;3.396;2022-11-12T11:06:16;3.75;;;3.15;;
14704;SDS011;7442;50.840;3.396;2022-11-12T11:08:46;4.97;;;3.20;;
14704;SDS011;7442;50.840;3.396;2022-11-12T11:11:19;4.60;;;3.05;;
14704;SDS011;7442;50.840;3.396;2022-11-12T11:13:58;3.75;;;3.22;;
14704;SDS011;7442;50.840;3.396;2022-11-12T11:16:51;5.22;;;3.12;;
14704;SDS011;7442;50.840;3.396;2022-11-12T11:19:24;3.90;;;3.25;;
14704;SDS011;7442;50.840;3.396;2022-11-12T11:25:17;4.22;;;3.62;;
14704;SDS011;7442;50.840;3.396;2022-11-12T11:31:05;3.83;;;3.33;;
14704;SDS011;7442;50.840;3.396;2022-11-12T11:42:06;3.45;;;2.95;;
14704;SDS011;7442;50.840;3.396;2022-11-12T11:44:50;4.75;;;3.85;;
14704;SDS011;7442;50.840;3.396;2022-11-12T11:47:27;4.10;;;3.70;;
14704;SDS011;7442;50.840;3.396;2022-11-12T11:50:15;4.90;;;3.52;;
14704;SDS011;7442;50.840;3.396;2022-11-12T11:55:35;4.83;;;3.80;;
14704;SDS011;7442;50.840;3.396;2022-11-12T12:01:06;5.30;;;3.90;;
14704;SDS011;7442;50.840;3.396;2022-11-12T12:04:03;4.75;;;3.55;;
14704;SDS011;7442;50.840;3.396;2022-11-12T12:06:36;4.97;;;4.03;;
14704;SDS011;7442;50.840;3.396;2022-11-12T12:09:22;5.10;;;4.00;;
14704;SDS011;7442;50.840;3.396;2022-11-12T12:12:17;5.17;;;4.17;;
14704;SDS011;7442;50.840;3.396;2022-11-12T12:20:47;6.45;;;4.65;;
14704;SDS011;7442;50.840;3.396;2022-11-12T12:23:32;5.42;;;4.33;;
14704;SDS011;7442;50.840;3.396;2022-11-12T12:26:05;4.87;;;3.70;;
14704;SDS011;7442;50.840;3.396;2022-11-12T12:28:49;6.03;;;4.80;;
14704;SDS011;7442;50.840;3.396;2022-11-12T12:31:17;5.67;;;4.72;;
14704;SDS011;7442;50.840;3.396;2022-11-12T12:33:53;6.28;;;4.45;;
14704;SDS011;7442;50.840;3.396;2022-11-12T12:41:48;6.37;;;4.55;;
14704;SDS011;7442;50.840;3.396;2022-11-12T12:44:37;6.45;;;5.05;;
14704;SDS011;7442;50.840;3.396;2022-11-12T12:47:24;7.67;;;4.33;;
14704;SDS011;7442;50.840;3.396;2022-11-12T12:49:56;7.55;;;5.25;;
14704;SDS011;7442;50.840;3.396;2022-11-12T12:52:28;5.97;;;4.58;;
14704;SDS011;7442;50.840;3.396;2022-11-12T12:54:58;7.12;;;5.10;;
14704;SDS011;7442;50.840;3.396;2022-11-12T12:57:38;7.35;;;5.58;;
14704;SDS011;7442;50.840;3.396;2022-11-12T13:03:02;7.08;;;5.30;;
14704;SDS011;7442;50.840;3.396;2022-11-12T13:05:33;6.12;;;5.00;;
14704;SDS011;7442;50.840;3.396;2022-11-12T13:08:08;6.30;;;5.15;;
14704;SDS011;7442;50.840;3.396;2022-11-12T13:15:56;7.25;;;5.87;;
14704;SDS011;7442;50.840;3.396;2022-11-12T13:21:10;7.67;;;5.83;;
14704;SDS011;7442;50.840;3.396;2022-11-12T13:23:49;6.83;;;5.53;;
14704;SDS011;7442;50.840;3.396;2022-11-12T13:26:54;7.40;;;5.45;;
14704;SDS011;7442;50.840;3.396;2022-11-12T13:37:44;6.37;;;5.50;;
14704;SDS011;7442;50.840;3.396;2022-11-12T13:45:51;6.25;;;5.60;;
14704;SDS011;7442;50.840;3.396;2022-11-12T13:51:16;7.30;;;5.97;;
14704;SDS011;7442;50.840;3.396;2022-11-12T13:53:51;7.55;;;6.20;;
14704;SDS011;7442;50.840;3.396;2022-11-12T13:56:36;7.62;;;6.12;;
14704;SDS011;7442;50.840;3.396;2022-11-12T13:59:16;8.08;;;6.08;;
14704;SDS011;7442;50.840;3.396;2022-11-12T14:01:48;7.40;;;5.92;;
14704;SDS011;7442;50.840;3.396;2022-11-12T14:04:19;9.10;;;6.40;;
14704;SDS011;7442;50.840;3.396;2022-11-12T14:07:06;8.05;;;6.53;;
14704;SDS011;7442;50.840;3.396;2022-11-12T14:15:22;7.10;;;5.80;;
14704;SDS011;7442;50.840;3.396;2022-11-12T14:20:40;7.45;;;6.62;;
14704;SDS011;7442;50.840;3.396;2022-11-12T14:23:12;7.97;;;6.20;;
14704;SDS011;7442;50.840;3.396;2022-11-12T14:25:50;8.43;;;6.30;;
14704;SDS011;7442;50.840;3.396;2022-11-12T14:30:58;8.20;;;6.83;;
14704;SDS011;7442;50.840;3.396;2022-11-12T14:33:30;9.40;;;6.85;;
14704;SDS011;7442;50.840;3.396;2022-11-12T14:36:02;8.18;;;6.50;;
14704;SDS011;7442;50.840;3.396;2022-11-12T14:38:49;7.20;;;6.10;;
14704;SDS011;7442;50.840;3.396;2022-11-12T14:41:36;9.20;;;6.60;;
14704;SDS011;7442;50.840;3.396;2022-11-12T14:44:11;8.95;;;6.30;;
14704;SDS011;7442;50.840;3.396;2022-11-12T14:46:46;7.90;;;6.28;;
14704;SDS011;7442;50.840;3.396;2022-11-12T14:49:25;7.25;;;6.20;;
14704;SDS011;7442;50.840;3.396;2022-11-12T14:52:08;8.45;;;6.65;;
14704;SDS011;7442;50.840;3.396;2022-11-12T14:54:40;7.67;;;6.10;;
14704;SDS011;7442;50.840;3.396;2022-11-12T14:57:19;8.35;;;6.85;;
14704;SDS011;7442;50.840;3.396;2022-11-12T14:59:50;8.03;;;6.30;;
14704;SDS011;7442;50.840;3.396;2022-11-12T15:02:22;8.15;;;6.58;;
14704;SDS011;7442;50.840;3.396;2022-11-12T15:13:05;7.87;;;6.83;;
14704;SDS011;7442;50.840;3.396;2022-11-12T15:15:53;8.15;;;6.67;;
14704;SDS011;7442;50.840;3.396;2022-11-12T15:18:26;7.75;;;6.67;;
14704;SDS011;7442;50.840;3.396;2022-11-12T15:23:51;8.90;;;7.10;;
14704;SDS011;7442;50.840;3.396;2022-11-12T15:26:38;7.15;;;6.20;;
14704;SDS011;7442;50.840;3.396;2022-11-12T15:31:49;7.92;;;6.62;;
14704;SDS011;7442;50.840;3.396;2022-11-12T15:34:27;8.33;;;6.53;;
14704;SDS011;7442;50.840;3.396;2022-11-12T15:37:02;8.53;;;6.92;;
14704;SDS011;7442;50.840;3.396;2022-11-12T15:39:38;8.23;;;6.33;;
14704;SDS011;7442;50.840;3.396;2022-11-12T15:42:19;8.50;;;7.28;;
14704;SDS011;7442;50.840;3.396;2022-11-12T15:44:59;9.03;;;6.80;;
14704;SDS011;7442;50.840;3.396;2022-11-12T15:47:30;7.37;;;6.15;;
14704;SDS011;7442;50.840;3.396;2022-11-12T15:50:00;8.80;;;6.53;;
14704;SDS011;7442;50.840;3.396;2022-11-12T15:52:34;7.40;;;6.37;;
14704;SDS011;7442;50.840;3.396;2022-11-12T15:55:05;8.75;;;6.65;;
14704;SDS011;7442;50.840;3.396;2022-11-12T15:57:39;8.55;;;6.87;;
14704;SDS011;7442;50.840;3.396;2022-11-12T16:00:23;7.78;;;6.35;;
14704;SDS011;7442;50.840;3.396;2022-11-12T16:02:56;8.25;;;6.22;;
14704;SDS011;7442;50.840;3.396;2022-11-12T16:05:28;7.42;;;6.28;;
14704;SDS011;7442;50.840;3.396;2022-11-12T16:07:58;8.90;;;6.72;;
14704;SDS011;7442;50.840;3.396;2022-11-12T16:10:28;7.87;;;6.45;;
14704;SDS011;7442;50.840;3.396;2022-11-12T16:13:00;8.25;;;7.00;;
14704;SDS011;7442;50.840;3.396;2022-11-12T16:15:31;7.78;;;6.25;;
14704;SDS011;7442;50.840;3.396;2022-11-12T16:18:02;7.30;;;6.30;;
14704;SDS011;7442;50.840;3.396;2022-11-12T16:20:33;7.90;;;6.78;;
14704;SDS011;7442;50.840;3.396;2022-11-12T16:23:03;8.63;;;6.90;;
14704;SDS011;7442;50.840;3.396;2022-11-12T16:25:35;7.85;;;6.85;;
14704;SDS011;7442;50.840;3.396;2022-11-12T16:28:11;7.97;;;6.47;;
14704;SDS011;7442;50.840;3.396;2022-11-12T16:30:45;8.05;;;6.35;;
14704;SDS011;7442;50.840;3.396;2022-11-12T16:33:17;7.65;;;6.60;;
14704;SDS011;7442;50.840;3.396;2022-11-12T16:35:47;7.17;;;6.37;;
14704;SDS011;7442;50.840;3.396;2022-11-12T16:38:17;8.90;;;6.50;;
14704;SDS011;7442;50.840;3.396;2022-11-12T16:40:49;8.83;;;7.08;;
14704;SDS011;7442;50.840;3.396;2022-11-12T16:43:19;7.70;;;6.65;;
14704;SDS011;7442;50.840;3.396;2022-11-12T16:45:49;8.83;;;6.78;;
14704;SDS011;7442;50.840;3.396;2022-11-12T16:48:20;8.38;;;7.22;;
14704;SDS011;7442;50.840;3.396;2022-11-12T16:50:50;7.60;;;6.37;;
14704;SDS011;7442;50.840;3.396;2022-11-12T16:53:20;8.00;;;6.95;;
14704;SDS011;7442;50.840;3.396;2022-11-12T16:55:50;7.87;;;6.67;;
14704;SDS011;7442;50.840;3.396;2022-11-12T16:58:20;7.95;;;6.72;;
14704;SDS011;7442;50.840;3.396;2022-11-12T17:00:50;6.78;;;6.05;;
14704;SDS011;7442;50.840;3.396;2022-11-12T17:03:20;7.87;;;6.85;;
14704;SDS011;7442;50.840;3.396;2022-11-12T17:05:50;7.15;;;6.30;;
14704;SDS011;7442;50.840;3.396;2022-11-12T17:08:21;6.90;;;6.20;;
14704;SDS011;7442;50.840;3.396;2022-11-12T17:10:51;8.58;;;6.62;;
14704;SDS011;7442;50.840;3.396;2022-11-12T17:13:21;8.35;;;6.92;;
14704;SDS011;7442;50.840;3.396;2022-11-12T17:15:55;9.83;;;7.17;;
14704;SDS011;7442;50.840;3.396;2022-11-12T17:18:25;7.83;;;6.70;;
14704;SDS011;7442;50.840;3.396;2022-11-12T17:20:55;7.33;;;6.55;;
14704;SDS011;7442;50.840;3.396;2022-11-12T17:23:27;7.70;;;6.30;;
14704;SDS011;7442;50.840;3.396;2022-11-12T17:26:00;6.83;;;5.97;;